createdAt,value
2018-05-31T00:00:08.644Z,17.98
2018-05-31T00:00:42.881Z,17.87
2018-05-31T00:01:16.759Z,17.80
2018-05-31T00:01:50.895Z,17.98
2018-05-31T00:02:25.062Z,17.37
2018-05-31T00:02:59.120Z,17.70
2018-05-31T00:03:33.118Z,16.40
2018-05-31T00:04:07.245Z,17.12
2018-05-31T00:04:43.034Z,17.35
2018-05-31T00:05:17.070Z,17.40
2018-05-31T00:05:51.665Z,17.85
2018-05-31T00:06:25.848Z,18.60
2018-05-31T00:07:00.093Z,18.05
2018-05-31T00:07:33.978Z,16.67
2018-05-31T00:08:08.723Z,16.98
2018-05-31T00:08:42.615Z,17.37
2018-05-31T00:09:16.571Z,17.30
2018-05-31T00:09:52.490Z,17.65
2018-05-31T00:10:26.674Z,17.12
2018-05-31T00:11:00.665Z,17.02
2018-05-31T00:11:34.539Z,18.12
2018-05-31T00:12:09.185Z,17.73
2018-05-31T00:12:43.750Z,18.77
2018-05-31T00:13:18.191Z,18.33
2018-05-31T00:13:52.288Z,17.42
2018-05-31T00:14:26.189Z,18.00
2018-05-31T00:15:00.298Z,17.67
2018-05-31T00:15:34.234Z,17.60
2018-05-31T00:16:08.934Z,17.40
2018-05-31T00:16:42.831Z,16.30
2018-05-31T00:17:16.928Z,17.85
2018-05-31T00:17:50.965Z,16.60
2018-05-31T00:18:25.436Z,17.35
2018-05-31T00:19:00.118Z,16.33
2018-05-31T00:19:34.788Z,16.55
2018-05-31T00:20:08.729Z,17.23
2018-05-31T00:20:42.954Z,17.55
2018-05-31T00:21:17.204Z,16.65
2018-05-31T00:21:51.379Z,17.17
2018-05-31T00:22:25.694Z,17.42
2018-05-31T00:23:01.940Z,17.27
2018-05-31T00:23:36.996Z,16.33
2018-05-31T00:24:11.751Z,16.50
2018-05-31T00:24:46.242Z,16.95
2018-05-31T00:25:20.282Z,17.37
2018-05-31T00:25:54.230Z,16.40
2018-05-31T00:26:28.167Z,16.60
2018-05-31T00:27:03.564Z,18.37
2018-05-31T00:27:37.531Z,17.62
2018-05-31T00:28:11.562Z,18.30
2018-05-31T00:28:45.455Z,17.87
2018-05-31T00:29:19.952Z,17.73
2018-05-31T00:29:55.063Z,17.67
2018-05-31T00:30:29.040Z,16.92
2018-05-31T00:31:03.010Z,17.30
2018-05-31T00:31:37.224Z,17.15
2018-05-31T00:32:11.333Z,16.55
2018-05-31T00:32:46.301Z,17.67
2018-05-31T00:33:20.192Z,16.95
2018-05-31T00:33:54.214Z,17.65
2018-05-31T00:34:28.184Z,17.23
2018-05-31T00:35:02.082Z,16.37
2018-05-31T00:35:36.111Z,17.67
2018-05-31T00:36:10.529Z,17.35
2018-05-31T00:36:44.584Z,16.58
2018-05-31T00:37:18.628Z,16.87
2018-05-31T00:37:52.541Z,17.30
2018-05-31T00:38:26.890Z,16.98
2018-05-31T00:39:00.950Z,17.12
2018-05-31T00:39:34.841Z,17.62
2018-05-31T00:40:09.561Z,16.67
2018-05-31T00:40:43.450Z,15.27
2018-05-31T00:41:17.425Z,15.68
2018-05-31T00:41:51.963Z,16.00
2018-05-31T00:42:25.987Z,16.42
2018-05-31T00:42:59.910Z,15.30
2018-05-31T00:43:35.287Z,17.20
2018-05-31T00:44:11.239Z,16.20
2018-05-31T00:44:45.316Z,15.20
2018-05-31T00:45:19.209Z,15.63
2018-05-31T00:45:53.113Z,16.10
2018-05-31T00:46:27.022Z,14.38
2018-05-31T00:47:00.937Z,16.33
2018-05-31T00:47:34.943Z,15.55
2018-05-31T00:48:08.875Z,14.75
2018-05-31T00:48:42.867Z,15.60
2018-05-31T00:49:18.674Z,13.93
2018-05-31T00:49:52.602Z,15.20
2018-05-31T00:50:27.502Z,14.68
2018-05-31T00:51:01.741Z,15.65
2018-05-31T00:51:35.686Z,14.90
2018-05-31T00:52:09.591Z,15.35
2018-05-31T00:52:43.468Z,14.85
2018-05-31T00:53:18.028Z,14.30
2018-05-31T00:53:52.050Z,14.85
2018-05-31T00:54:26.689Z,14.27
2018-05-31T00:55:00.793Z,14.45
2018-05-31T00:55:41.336Z,15.25
2018-05-31T00:56:16.393Z,16.30
2018-05-31T00:56:52.128Z,13.85
2018-05-31T00:57:26.433Z,15.10
2018-05-31T00:58:00.634Z,14.38
2018-05-31T00:58:36.319Z,14.95
2018-05-31T00:59:10.320Z,15.90
2018-05-31T00:59:44.453Z,13.98
2018-05-31T01:00:18.519Z,14.18
2018-05-31T01:00:52.476Z,15.35
2018-05-31T01:01:26.375Z,15.30
2018-05-31T01:02:00.509Z,14.13
2018-05-31T01:02:34.522Z,14.90
2018-05-31T01:03:08.557Z,15.23
2018-05-31T01:03:42.801Z,15.05
2018-05-31T01:04:16.753Z,15.20
2018-05-31T01:04:50.659Z,13.85
2018-05-31T01:05:24.571Z,14.65
2018-05-31T01:05:58.556Z,14.60
2018-05-31T01:06:32.444Z,14.23
2018-05-31T01:07:06.328Z,14.18
2018-05-31T01:07:40.228Z,13.85
2018-05-31T01:08:14.146Z,14.30
2018-05-31T01:08:48.281Z,13.77
2018-05-31T01:09:22.177Z,14.87
2018-05-31T01:09:56.059Z,15.27
2018-05-31T01:10:30.742Z,13.70
2018-05-31T01:11:04.717Z,13.18
2018-05-31T01:11:38.840Z,13.10
2018-05-31T01:12:12.860Z,13.62
2018-05-31T01:12:47.137Z,13.80
2018-05-31T01:13:21.709Z,13.70
2018-05-31T01:13:56.652Z,13.15
2018-05-31T01:14:30.671Z,14.07
2018-05-31T01:15:04.720Z,13.25
2018-05-31T01:15:38.727Z,13.50
2018-05-31T01:16:12.608Z,13.57
2018-05-31T01:16:46.511Z,13.35
2018-05-31T01:17:20.387Z,13.35
2018-05-31T01:17:54.929Z,13.95
2018-05-31T01:18:28.911Z,13.40
2018-05-31T01:19:02.868Z,13.80
2018-05-31T01:19:36.802Z,14.00
2018-05-31T01:20:10.792Z,14.38
2018-05-31T01:20:45.653Z,14.35
2018-05-31T01:21:19.603Z,13.55
2018-05-31T01:21:53.578Z,14.05
2018-05-31T01:22:27.617Z,14.52
2018-05-31T01:23:01.642Z,14.02
2018-05-31T01:23:35.899Z,14.52
2018-05-31T01:24:09.789Z,13.62
2018-05-31T01:24:44.070Z,13.38
2018-05-31T01:25:18.274Z,13.55
2018-05-31T01:25:52.444Z,13.65
2018-05-31T01:26:26.354Z,14.00
2018-05-31T01:27:00.626Z,14.30
2018-05-31T01:27:34.608Z,15.05
2018-05-31T01:28:08.501Z,13.48
2018-05-31T01:28:42.547Z,13.07
2018-05-31T01:29:17.410Z,15.23
2018-05-31T01:29:51.403Z,14.73
2018-05-31T01:30:28.278Z,14.45
2018-05-31T01:31:02.417Z,14.27
2018-05-31T01:31:37.388Z,14.23
2018-05-31T01:32:12.463Z,15.45
2018-05-31T01:32:46.464Z,15.07
2018-05-31T01:33:20.349Z,14.50
2018-05-31T01:33:54.482Z,14.25
2018-05-31T01:34:28.644Z,14.25
2018-05-31T01:35:03.568Z,14.38
2018-05-31T01:35:38.240Z,14.02
2018-05-31T01:36:12.129Z,13.43
2018-05-31T01:36:46.186Z,13.95
2018-05-31T01:37:20.230Z,14.30
2018-05-31T01:37:54.121Z,14.18
2018-05-31T01:38:31.118Z,14.43
2018-05-31T01:39:05.012Z,13.30
2018-05-31T01:39:39.080Z,14.20
2018-05-31T01:40:13.179Z,13.98
2018-05-31T01:40:47.254Z,13.75
2018-05-31T01:41:22.263Z,13.82
2018-05-31T01:41:56.292Z,13.93
2018-05-31T01:42:30.185Z,15.05
2018-05-31T01:43:04.674Z,13.75
2018-05-31T01:43:38.740Z,14.27
2018-05-31T01:44:13.018Z,13.45
2018-05-31T01:44:46.963Z,14.45
2018-05-31T01:45:21.000Z,14.52
2018-05-31T01:45:54.927Z,14.70
2018-05-31T01:46:28.868Z,13.38
2018-05-31T01:47:02.857Z,14.68
2018-05-31T01:47:37.630Z,14.63
2018-05-31T01:48:11.665Z,13.55
2018-05-31T01:48:46.031Z,13.80
2018-05-31T01:49:20.157Z,13.35
2018-05-31T01:49:54.198Z,13.73
2018-05-31T01:50:28.315Z,14.35
2018-05-31T01:51:03.504Z,13.38
2018-05-31T01:51:38.828Z,13.73
2018-05-31T01:52:12.797Z,13.25
2018-05-31T01:52:47.843Z,13.90
2018-05-31T01:53:23.535Z,13.90
2018-05-31T01:53:58.096Z,13.27
2018-05-31T01:54:31.979Z,14.23
2018-05-31T01:55:05.872Z,13.95
2018-05-31T01:55:39.859Z,13.55
2018-05-31T01:56:13.818Z,13.68
2018-05-31T01:56:47.817Z,13.98
2018-05-31T01:57:22.456Z,13.20
2018-05-31T01:57:57.233Z,14.13
2018-05-31T01:58:31.293Z,13.07
2018-05-31T01:59:05.337Z,14.23
2018-05-31T01:59:39.417Z,14.30
2018-05-31T02:00:13.565Z,13.62
2018-05-31T02:00:47.512Z,14.45
2018-05-31T02:01:21.414Z,13.98
2018-05-31T02:01:55.524Z,13.35
2018-05-31T02:02:29.519Z,13.90
2018-05-31T02:03:03.698Z,14.10
2018-05-31T02:03:37.566Z,13.23
2018-05-31T02:04:11.504Z,14.98
2018-05-31T02:04:45.389Z,13.35
2018-05-31T02:05:19.304Z,14.15
2018-05-31T02:05:54.738Z,14.20
2018-05-31T02:06:28.832Z,12.95
2018-05-31T02:07:02.735Z,13.75
2018-05-31T02:07:36.621Z,12.57
2018-05-31T02:08:10.649Z,13.32
2018-05-31T02:08:44.552Z,13.93
2018-05-31T02:09:18.429Z,14.35
2018-05-31T02:09:52.678Z,12.25
2018-05-31T02:10:26.873Z,13.93
2018-05-31T02:11:01.105Z,13.48
2018-05-31T02:11:35.103Z,14.35
2018-05-31T02:12:09.261Z,14.50
2018-05-31T02:12:43.147Z,13.60
2018-05-31T02:13:18.236Z,13.85
2018-05-31T02:13:52.833Z,12.73
2018-05-31T02:14:26.766Z,13.50
2018-05-31T02:15:00.645Z,13.27
2018-05-31T02:15:34.549Z,13.30
2018-05-31T02:16:08.507Z,14.45
2018-05-31T02:16:42.406Z,13.57
2018-05-31T02:17:16.505Z,14.27
2018-05-31T02:17:50.462Z,13.05
2018-05-31T02:18:24.344Z,12.45
2018-05-31T02:18:58.397Z,13.43
2018-05-31T02:19:32.285Z,13.62
2018-05-31T02:20:06.186Z,13.35
2018-05-31T02:20:40.071Z,13.32
2018-05-31T02:21:13.994Z,13.13
2018-05-31T02:21:47.864Z,13.82
2018-05-31T02:22:21.766Z,13.93
2018-05-31T02:22:55.664Z,13.50
2018-05-31T02:23:29.571Z,14.30
2018-05-31T02:24:03.448Z,12.93
2018-05-31T02:24:37.337Z,13.57
2018-05-31T02:25:11.197Z,14.75
2018-05-31T02:25:45.184Z,13.48
2018-05-31T02:26:19.651Z,13.07
2018-05-31T02:26:53.528Z,14.75
2018-05-31T02:27:27.413Z,13.38
2018-05-31T02:28:01.337Z,13.48
2018-05-31T02:28:35.340Z,13.85
2018-05-31T02:29:09.225Z,13.02
2018-05-31T02:29:43.232Z,13.77
2018-05-31T02:30:17.108Z,13.85
2018-05-31T02:30:51.158Z,13.55
2018-05-31T02:31:25.069Z,12.93
2018-05-31T02:31:58.952Z,12.98
2018-05-31T02:32:32.907Z,13.82
2018-05-31T02:33:06.818Z,13.85
2018-05-31T02:33:40.717Z,14.52
2018-05-31T02:34:14.710Z,13.43
2018-05-31T02:34:48.579Z,14.13
2018-05-31T02:35:22.458Z,13.95
2018-05-31T02:35:56.599Z,13.65
2018-05-31T02:36:30.479Z,13.80
2018-05-31T02:37:04.397Z,14.13
2018-05-31T02:37:38.579Z,13.27
2018-05-31T02:38:12.806Z,12.68
2018-05-31T02:38:46.704Z,13.98
2018-05-31T02:39:20.581Z,13.85
2018-05-31T02:39:54.456Z,14.02
2018-05-31T02:40:28.388Z,13.45
2018-05-31T02:41:02.289Z,13.98
2018-05-31T02:41:36.166Z,14.55
2018-05-31T02:42:10.055Z,13.15
2018-05-31T02:42:43.934Z,13.90
2018-05-31T02:43:18.067Z,14.45
2018-05-31T02:43:51.949Z,13.90
2018-05-31T02:44:26.843Z,13.25
2018-05-31T02:45:00.717Z,13.82
2018-05-31T02:45:34.655Z,12.95
2018-05-31T02:46:08.544Z,14.07
2018-05-31T02:46:42.549Z,14.57
2018-05-31T02:47:16.557Z,14.48
2018-05-31T02:47:50.439Z,13.18
2018-05-31T02:48:24.304Z,13.13
2018-05-31T02:48:58.332Z,14.25
2018-05-31T02:49:32.222Z,14.15
2018-05-31T02:50:06.235Z,13.30
2018-05-31T02:50:40.340Z,13.40
2018-05-31T02:51:14.524Z,13.77
2018-05-31T02:51:48.394Z,13.62
2018-05-31T02:52:22.274Z,13.85
2018-05-31T02:52:56.146Z,14.25
2018-05-31T02:53:30.018Z,13.85
2018-05-31T02:54:03.908Z,14.60
2018-05-31T02:54:37.789Z,13.48
2018-05-31T02:55:11.668Z,13.80
2018-05-31T02:55:45.555Z,13.10
2018-05-31T02:56:19.889Z,14.45
2018-05-31T02:56:54.097Z,13.73
2018-05-31T02:57:28.200Z,13.55
2018-05-31T02:58:02.101Z,14.10
2018-05-31T02:58:36.298Z,14.20
2018-05-31T02:59:10.287Z,14.10
2018-05-31T02:59:44.186Z,14.00
2018-05-31T03:00:18.071Z,14.75
2018-05-31T03:00:52.078Z,13.55
2018-05-31T03:01:25.972Z,14.60
2018-05-31T03:01:59.840Z,14.55
2018-05-31T03:02:33.711Z,13.85
2018-05-31T03:03:07.584Z,15.05
2018-05-31T03:03:41.659Z,13.75
2018-05-31T03:04:15.549Z,13.88
2018-05-31T03:04:49.660Z,14.30
2018-05-31T03:05:23.652Z,13.98
2018-05-31T03:05:57.659Z,13.77
2018-05-31T03:06:31.850Z,14.75
2018-05-31T03:07:05.850Z,14.10
2018-05-31T03:07:39.729Z,14.50
2018-05-31T03:08:13.655Z,13.45
2018-05-31T03:08:47.532Z,14.55
2018-05-31T03:09:21.385Z,13.90
2018-05-31T03:09:55.263Z,13.90
2018-05-31T03:10:29.320Z,13.65
2018-05-31T03:11:03.196Z,14.45
2018-05-31T03:11:37.085Z,14.60
2018-05-31T03:12:10.968Z,14.27
2018-05-31T03:12:44.896Z,13.07
2018-05-31T03:13:18.769Z,14.10
2018-05-31T03:13:52.637Z,12.77
2018-05-31T03:14:26.506Z,14.90
2018-05-31T03:15:00.382Z,13.57
2018-05-31T03:15:34.248Z,14.13
2018-05-31T03:16:08.132Z,13.80
2018-05-31T03:16:42.187Z,13.52
2018-05-31T03:17:16.064Z,13.70
2018-05-31T03:17:50.063Z,13.90
2018-05-31T03:18:24.065Z,13.43
2018-05-31T03:18:58.361Z,13.13
2018-05-31T03:19:32.234Z,13.15
2018-05-31T03:20:06.157Z,13.05
2018-05-31T03:20:40.028Z,14.75
2018-05-31T03:21:13.911Z,14.23
2018-05-31T03:21:47.858Z,14.52
2018-05-31T03:22:21.746Z,12.90
2018-05-31T03:22:55.626Z,13.10
2018-05-31T03:23:29.539Z,13.88
2018-05-31T03:24:03.421Z,14.45
2018-05-31T03:24:37.295Z,13.48
2018-05-31T03:25:11.180Z,14.30
2018-05-31T03:25:45.212Z,13.90
2018-05-31T03:26:19.518Z,13.10
2018-05-31T03:26:53.416Z,12.73
2018-05-31T03:27:27.372Z,13.62
2018-05-31T03:28:01.238Z,14.38
2018-05-31T03:28:35.116Z,13.32
2018-05-31T03:29:09.095Z,13.38
2018-05-31T03:29:43.108Z,14.32
2018-05-31T03:30:16.986Z,13.50
2018-05-31T03:30:51.000Z,13.25
2018-05-31T03:31:24.984Z,13.88
2018-05-31T03:31:58.903Z,13.55
2018-05-31T03:32:33.394Z,14.30
2018-05-31T03:33:07.291Z,13.52
2018-05-31T03:33:41.175Z,15.38
2018-05-31T03:34:15.052Z,15.68
2018-05-31T03:34:48.923Z,14.80
2018-05-31T03:35:22.863Z,13.65
2018-05-31T03:35:56.740Z,13.82
2018-05-31T03:36:30.631Z,14.52
2018-05-31T03:37:04.653Z,14.10
2018-05-31T03:37:38.528Z,13.60
2018-05-31T03:38:12.644Z,15.35
2018-05-31T03:38:46.530Z,14.27
2018-05-31T03:39:20.416Z,14.85
2018-05-31T03:39:54.290Z,13.13
2018-05-31T03:40:28.236Z,14.80
2018-05-31T03:41:02.119Z,13.13
2018-05-31T03:41:36.128Z,13.82
2018-05-31T03:42:10.011Z,14.43
2018-05-31T03:42:44.021Z,14.07
2018-05-31T03:43:17.901Z,13.45
2018-05-31T03:43:51.782Z,13.98
2018-05-31T03:44:25.662Z,14.35
2018-05-31T03:44:59.717Z,13.23
2018-05-31T03:45:33.607Z,15.18
2018-05-31T03:46:07.552Z,14.25
2018-05-31T03:46:41.435Z,14.15
2018-05-31T03:47:15.331Z,14.48
2018-05-31T03:47:49.490Z,14.35
2018-05-31T03:48:23.580Z,14.60
2018-05-31T03:48:57.463Z,14.93
2018-05-31T03:49:31.472Z,15.05
2018-05-31T03:50:05.694Z,14.15
2018-05-31T03:50:39.579Z,13.93
2018-05-31T03:51:13.498Z,14.13
2018-05-31T03:51:47.612Z,13.88
2018-05-31T03:52:21.501Z,15.63
2018-05-31T03:52:55.380Z,13.32
2018-05-31T03:53:29.244Z,14.35
2018-05-31T03:54:56.309Z,13.00
2018-05-31T03:55:30.202Z,13.48
2018-05-31T03:56:04.193Z,16.02
2018-05-31T03:56:38.184Z,14.57
2018-05-31T03:57:12.077Z,14.70
2018-05-31T03:57:45.968Z,13.95
2018-05-31T03:58:19.839Z,14.13
2018-05-31T03:58:53.885Z,15.02
2018-05-31T03:59:27.743Z,14.70
2018-05-31T04:00:01.862Z,14.82
2018-05-31T04:00:35.742Z,14.40
2018-05-31T04:01:09.991Z,13.90
2018-05-31T04:01:43.857Z,13.85
2018-05-31T04:02:17.724Z,14.30
2018-05-31T04:02:51.632Z,14.15
2018-05-31T04:03:25.519Z,14.57
2018-05-31T04:03:59.408Z,14.45
2018-05-31T04:04:33.293Z,13.75
2018-05-31T04:05:07.156Z,14.75
2018-05-31T04:05:41.180Z,14.50
2018-05-31T04:06:15.123Z,14.20
2018-05-31T04:06:49.874Z,13.30
2018-05-31T04:07:23.794Z,14.00
2018-05-31T04:07:57.829Z,13.80
2018-05-31T04:08:31.737Z,14.65
2018-05-31T04:09:05.610Z,14.40
2018-05-31T04:09:39.780Z,14.63
2018-05-31T04:10:13.689Z,13.43
2018-05-31T04:10:47.570Z,13.65
2018-05-31T04:11:21.456Z,13.90
2018-05-31T04:11:55.333Z,13.93
2018-05-31T04:12:29.203Z,13.55
2018-05-31T04:13:03.149Z,14.00
2018-05-31T04:13:36.967Z,14.82
2018-05-31T04:14:11.084Z,14.43
2018-05-31T04:14:44.983Z,14.00
2018-05-31T04:15:18.851Z,14.85
2018-05-31T04:15:52.734Z,14.35
2018-05-31T04:16:26.679Z,15.25
2018-05-31T04:17:00.684Z,14.55
2018-05-31T04:17:34.780Z,13.07
2018-05-31T04:18:08.764Z,15.05
2018-05-31T04:18:42.644Z,14.90
2018-05-31T04:19:16.562Z,16.67
2018-05-31T04:19:50.560Z,14.07
2018-05-31T04:20:24.541Z,13.73
2018-05-31T04:20:58.455Z,13.98
2018-05-31T04:21:32.337Z,14.23
2018-05-31T04:22:06.240Z,14.43
2018-05-31T04:22:40.117Z,14.60
2018-05-31T04:23:14.036Z,14.32
2018-05-31T04:23:47.903Z,14.95
2018-05-31T04:24:21.779Z,13.93
2018-05-31T04:24:55.683Z,14.73
2018-05-31T04:25:29.561Z,15.18
2018-05-31T04:26:03.439Z,14.25
2018-05-31T04:26:37.430Z,16.10
2018-05-31T04:27:11.299Z,15.10
2018-05-31T04:27:45.188Z,14.82
2018-05-31T04:28:19.078Z,14.68
2018-05-31T04:28:52.975Z,14.63
2018-05-31T04:29:26.834Z,14.98
2018-05-31T04:30:00.775Z,14.07
2018-05-31T04:30:34.696Z,14.20
2018-05-31T04:31:08.705Z,14.20
2018-05-31T04:31:42.605Z,15.07
2018-05-31T04:32:16.663Z,16.00
2018-05-31T04:32:50.536Z,14.30
2018-05-31T04:33:24.464Z,15.13
2018-05-31T04:33:58.562Z,14.95
2018-05-31T04:34:32.434Z,14.68
2018-05-31T04:35:06.316Z,14.75
2018-05-31T04:35:40.189Z,15.77
2018-05-31T04:36:14.062Z,14.45
2018-05-31T04:36:48.114Z,15.60
2018-05-31T04:37:21.988Z,13.82
2018-05-31T04:37:55.869Z,15.10
2018-05-31T04:38:29.770Z,15.75
2018-05-31T04:39:03.659Z,14.30
2018-05-31T04:39:37.612Z,14.75
2018-05-31T04:40:11.603Z,15.57
2018-05-31T04:40:45.674Z,15.02
2018-05-31T04:41:19.540Z,14.35
2018-05-31T04:41:53.421Z,15.05
2018-05-31T04:42:27.302Z,16.50
2018-05-31T04:43:01.170Z,14.98
2018-05-31T04:43:35.089Z,15.77
2018-05-31T04:44:09.075Z,16.33
2018-05-31T04:44:43.175Z,15.45
2018-05-31T04:45:17.062Z,16.45
2018-05-31T04:45:50.996Z,15.20
2018-05-31T04:46:24.892Z,15.18
2018-05-31T04:46:58.961Z,15.70
2018-05-31T04:47:32.858Z,15.20
2018-05-31T04:48:06.766Z,14.68
2018-05-31T04:48:40.644Z,14.82
2018-05-31T04:49:14.623Z,15.18
2018-05-31T04:49:48.495Z,15.73
2018-05-31T04:50:22.445Z,15.88
2018-05-31T04:50:56.345Z,14.87
2018-05-31T04:51:30.260Z,15.93
2018-05-31T04:52:04.265Z,15.63
2018-05-31T04:52:38.150Z,14.38
2018-05-31T04:53:12.025Z,15.25
2018-05-31T04:53:46.124Z,14.40
2018-05-31T04:54:19.991Z,14.43
2018-05-31T04:54:54.041Z,14.63
2018-05-31T04:55:27.883Z,14.73
2018-05-31T04:56:01.804Z,15.48
2018-05-31T04:56:35.680Z,14.27
2018-05-31T04:57:09.595Z,14.90
2018-05-31T04:57:43.466Z,16.25
2018-05-31T04:58:17.344Z,14.18
2018-05-31T04:58:51.516Z,15.90
2018-05-31T04:59:25.430Z,15.80
2018-05-31T04:59:59.279Z,15.05
2018-05-31T05:00:33.479Z,15.40
2018-05-31T05:01:07.370Z,16.05
2018-05-31T05:01:41.269Z,15.48
2018-05-31T05:02:15.285Z,15.60
2018-05-31T05:02:49.179Z,16.15
2018-05-31T05:03:23.075Z,15.05
2018-05-31T05:03:56.973Z,15.60
2018-05-31T05:04:30.940Z,15.32
2018-05-31T05:05:04.834Z,15.23
2018-05-31T05:05:38.728Z,14.85
2018-05-31T05:06:12.658Z,15.52
2018-05-31T05:06:46.543Z,15.27
2018-05-31T05:07:20.423Z,14.80
2018-05-31T05:07:54.292Z,15.43
2018-05-31T05:08:28.187Z,15.07
2018-05-31T05:09:02.068Z,14.05
2018-05-31T05:09:36.132Z,15.27
2018-05-31T05:10:10.002Z,15.82
2018-05-31T05:10:44.010Z,15.48
2018-05-31T05:11:17.896Z,14.93
2018-05-31T05:11:51.782Z,15.90
2018-05-31T05:12:25.702Z,15.50
2018-05-31T05:12:59.774Z,14.60
2018-05-31T05:13:33.632Z,15.88
2018-05-31T05:14:07.685Z,14.73
2018-05-31T05:14:41.568Z,16.08
2018-05-31T05:15:15.480Z,16.23
2018-05-31T05:15:49.363Z,15.90
2018-05-31T05:16:23.269Z,16.08
2018-05-31T05:16:57.201Z,16.70
2018-05-31T05:17:31.271Z,14.80
2018-05-31T05:18:05.660Z,15.57
2018-05-31T05:18:39.666Z,14.90
2018-05-31T05:19:13.758Z,15.57
2018-05-31T05:19:47.623Z,14.98
2018-05-31T05:20:21.711Z,15.35
2018-05-31T05:20:55.571Z,14.70
2018-05-31T05:21:29.445Z,14.45
2018-05-31T05:22:03.334Z,14.93
2018-05-31T05:22:37.340Z,15.07
2018-05-31T05:23:11.233Z,15.43
2018-05-31T05:23:45.249Z,14.38
2018-05-31T05:24:19.168Z,14.82
2018-05-31T05:24:53.088Z,15.68
2018-05-31T05:25:26.970Z,15.77
2018-05-31T05:26:01.017Z,14.68
2018-05-31T05:26:34.896Z,15.63
2018-05-31T05:27:08.805Z,15.32
2018-05-31T05:27:42.676Z,15.43
2018-05-31T05:28:16.561Z,15.45
2018-05-31T05:28:50.458Z,16.37
2018-05-31T05:29:24.391Z,15.50
2018-05-31T05:29:58.276Z,15.23
2018-05-31T05:30:32.177Z,15.27
2018-05-31T05:31:06.293Z,15.93
2018-05-31T05:31:40.195Z,15.02
2018-05-31T05:32:14.144Z,15.05
2018-05-31T05:32:47.999Z,15.30
2018-05-31T05:33:21.957Z,16.05
2018-05-31T05:33:55.879Z,15.13
2018-05-31T05:34:29.868Z,15.35
2018-05-31T05:35:03.867Z,14.90
2018-05-31T05:35:37.737Z,15.55
2018-05-31T05:36:11.612Z,15.65
2018-05-31T05:36:45.944Z,15.25
2018-05-31T05:37:19.837Z,15.25
2018-05-31T05:37:53.707Z,14.60
2018-05-31T05:38:27.575Z,15.20
2018-05-31T05:39:01.733Z,14.77
2018-05-31T05:39:35.640Z,15.38
2018-05-31T05:40:09.539Z,15.57
2018-05-31T05:40:43.441Z,15.45
2018-05-31T05:41:17.517Z,15.00
2018-05-31T05:41:51.618Z,15.48
2018-05-31T05:42:25.717Z,15.88
2018-05-31T05:42:59.814Z,14.50
2018-05-31T05:43:33.724Z,15.70
2018-05-31T05:44:07.789Z,14.65
2018-05-31T05:44:41.912Z,15.15
2018-05-31T05:45:15.805Z,14.38
2018-05-31T05:45:49.671Z,15.13
2018-05-31T05:46:23.592Z,15.48
2018-05-31T05:46:57.471Z,15.43
2018-05-31T05:47:31.392Z,16.90
2018-05-31T05:48:05.487Z,14.50
2018-05-31T05:48:39.442Z,14.80
2018-05-31T05:49:13.381Z,15.95
2018-05-31T05:49:47.277Z,15.00
2018-05-31T05:50:21.207Z,16.00
2018-05-31T05:50:55.272Z,14.80
2018-05-31T05:51:29.177Z,14.05
2018-05-31T05:52:03.266Z,15.65
2018-05-31T05:52:37.160Z,14.45
2018-05-31T05:53:11.092Z,14.73
2018-05-31T05:53:45.158Z,14.43
2018-05-31T05:54:19.033Z,15.60
2018-05-31T05:54:53.091Z,14.13
2018-05-31T05:55:26.968Z,14.50
2018-05-31T05:56:00.860Z,14.60
2018-05-31T05:56:34.760Z,15.18
2018-05-31T05:57:08.669Z,14.93
2018-05-31T05:57:42.758Z,14.43
2018-05-31T05:58:16.631Z,14.50
2018-05-31T05:58:50.516Z,14.73
2018-05-31T05:59:24.420Z,14.40
2018-05-31T05:59:58.420Z,14.23
2018-05-31T06:00:32.325Z,15.32
2018-05-31T06:01:06.228Z,14.25
2018-05-31T06:01:40.483Z,14.52
2018-05-31T06:02:14.606Z,15.02
2018-05-31T06:02:48.521Z,13.57
2018-05-31T06:03:22.468Z,14.20
2018-05-31T06:03:56.365Z,14.52
2018-05-31T06:04:30.261Z,14.65
2018-05-31T06:05:04.175Z,14.82
2018-05-31T06:05:38.052Z,15.20
2018-05-31T06:06:11.920Z,12.73
2018-05-31T06:06:45.804Z,14.77
2018-05-31T06:07:19.675Z,13.82
2018-05-31T06:07:53.688Z,14.05
2018-05-31T06:08:27.569Z,14.68
2018-05-31T06:09:01.473Z,14.45
2018-05-31T06:09:35.338Z,13.70
2018-05-31T06:10:09.338Z,13.80
2018-05-31T06:10:43.156Z,14.52
2018-05-31T06:11:17.107Z,14.05
2018-05-31T06:11:51.031Z,14.93
2018-05-31T06:12:25.017Z,15.35
2018-05-31T06:12:59.139Z,14.48
2018-05-31T06:13:33.101Z,14.15
2018-05-31T06:14:07.132Z,14.38
2018-05-31T06:14:41.007Z,14.30
2018-05-31T06:15:14.882Z,14.55
2018-05-31T06:15:48.935Z,13.40
2018-05-31T06:16:22.820Z,13.55
2018-05-31T06:16:56.833Z,13.95
2018-05-31T06:17:30.726Z,13.52
2018-05-31T06:18:04.607Z,12.60
2018-05-31T06:18:38.478Z,13.57
2018-05-31T06:19:12.397Z,13.93
2018-05-31T06:19:46.338Z,12.75
2018-05-31T06:20:20.211Z,12.57
2018-05-31T06:20:54.386Z,13.00
2018-05-31T06:21:28.259Z,12.57
2018-05-31T06:22:02.192Z,14.55
2018-05-31T06:22:36.083Z,13.57
2018-05-31T06:23:09.961Z,12.45
2018-05-31T06:23:43.871Z,13.68
2018-05-31T06:24:17.758Z,13.02
2018-05-31T06:24:51.634Z,12.07
2018-05-31T06:25:25.569Z,13.50
2018-05-31T06:25:59.455Z,13.02
2018-05-31T06:26:33.337Z,13.25
2018-05-31T06:27:07.338Z,13.75
2018-05-31T06:27:41.235Z,13.05
2018-05-31T06:28:15.131Z,14.10
2018-05-31T06:28:49.061Z,13.20
2018-05-31T06:29:22.964Z,13.68
2018-05-31T06:29:56.882Z,12.75
2018-05-31T06:30:30.799Z,12.75
2018-05-31T06:31:04.673Z,12.02
2018-05-31T06:31:38.567Z,14.40
2018-05-31T06:32:12.520Z,11.40
2018-05-31T06:32:46.476Z,12.57
2018-05-31T06:33:20.379Z,12.45
2018-05-31T06:33:54.284Z,12.43
2018-05-31T06:34:28.171Z,12.27
2018-05-31T06:35:02.060Z,11.55
2018-05-31T06:35:35.993Z,11.35
2018-05-31T06:36:09.964Z,11.93
2018-05-31T06:36:43.854Z,12.75
2018-05-31T06:37:17.743Z,11.60
2018-05-31T06:37:51.615Z,11.52
2018-05-31T06:38:25.508Z,12.65
2018-05-31T06:38:59.379Z,11.82
2018-05-31T06:39:33.482Z,12.82
2018-05-31T06:40:08.933Z,11.82
2018-05-31T06:40:43.408Z,11.95
2018-05-31T06:41:17.803Z,11.80
2018-05-31T06:41:51.672Z,13.30
2018-05-31T06:42:25.531Z,13.23
2018-05-31T06:42:59.757Z,11.45
2018-05-31T06:43:33.639Z,11.68
2018-05-31T06:44:07.488Z,10.85
2018-05-31T06:44:41.485Z,11.73
2018-05-31T06:45:15.600Z,12.43
2018-05-31T06:45:49.512Z,11.90
2018-05-31T06:46:23.389Z,11.70
2018-05-31T06:46:57.261Z,10.90
2018-05-31T06:47:31.141Z,11.95
2018-05-31T06:48:04.995Z,11.75
2018-05-31T06:48:38.856Z,11.85
2018-05-31T06:49:12.845Z,12.00
2018-05-31T06:49:46.736Z,11.85
2018-05-31T06:50:20.660Z,12.05
2018-05-31T06:50:54.587Z,11.43
2018-05-31T06:51:28.482Z,11.18
2018-05-31T06:52:02.612Z,10.93
2018-05-31T06:52:36.479Z,11.75
2018-05-31T06:53:10.340Z,11.20
2018-05-31T06:53:44.279Z,11.85
2018-05-31T06:54:18.259Z,11.23
2018-05-31T06:54:52.107Z,11.85
2018-05-31T06:55:26.206Z,11.77
2018-05-31T06:56:00.303Z,11.00
2018-05-31T06:56:34.293Z,11.40
2018-05-31T06:57:08.440Z,11.93
2018-05-31T06:57:42.616Z,12.13
2018-05-31T06:58:16.763Z,10.95
2018-05-31T06:58:50.712Z,10.27
2018-05-31T06:59:24.562Z,11.18
2018-05-31T06:59:58.499Z,11.82
2018-05-31T07:00:32.379Z,12.93
2018-05-31T07:01:06.884Z,11.15
2018-05-31T07:01:40.829Z,12.23
2018-05-31T07:02:14.719Z,10.48
2018-05-31T07:02:48.600Z,11.98
2018-05-31T07:03:22.467Z,11.45
2018-05-31T07:03:56.600Z,11.38
2018-05-31T07:04:30.663Z,11.15
2018-05-31T07:05:04.578Z,11.20
2018-05-31T07:05:38.459Z,12.13
2018-05-31T07:06:12.354Z,11.50
2018-05-31T07:06:46.235Z,11.48
2018-05-31T07:07:20.087Z,10.60
2018-05-31T07:07:53.975Z,11.20
2018-05-31T07:08:27.850Z,10.90
2018-05-31T07:09:01.738Z,12.02
2018-05-31T07:09:35.601Z,11.98
2018-05-31T07:10:09.483Z,11.30
2018-05-31T07:10:43.520Z,11.32
2018-05-31T07:11:17.623Z,11.90
2018-05-31T07:11:51.728Z,11.68
2018-05-31T07:12:25.599Z,11.65
2018-05-31T07:12:59.479Z,12.07
2018-05-31T07:13:33.727Z,12.82
2018-05-31T07:14:07.690Z,12.90
2018-05-31T07:14:41.549Z,11.77
2018-05-31T07:15:15.432Z,12.32
2018-05-31T07:15:49.294Z,12.43
2018-05-31T07:16:23.176Z,11.63
2018-05-31T07:16:57.094Z,11.15
2018-05-31T07:17:31.186Z,14.50
2018-05-31T07:18:05.288Z,11.18
2018-05-31T07:18:39.473Z,12.00
2018-05-31T07:19:13.387Z,11.70